createdAt,value
2018-06-10T00:00:39.102Z,17.67
2018-06-10T00:03:08.044Z,17.93
2018-06-10T00:05:37.000Z,20.53
2018-06-10T00:08:05.777Z,18.03
2018-06-10T00:10:34.743Z,19.37
2018-06-10T00:13:03.599Z,16.73
2018-06-10T00:15:32.503Z,18.17
2018-06-10T00:18:01.308Z,17.00
2018-06-10T00:20:30.177Z,15.97
2018-06-10T00:22:59.137Z,18.27
2018-06-10T00:25:28.090Z,19.00
2018-06-10T00:27:56.607Z,16.73
2018-06-10T00:30:25.262Z,19.17
2018-06-10T00:32:54.297Z,21.13
2018-06-10T00:35:23.265Z,17.77
2018-06-10T00:37:52.091Z,17.97
2018-06-10T00:40:21.107Z,15.97
2018-06-10T00:42:49.967Z,22.30
2018-06-10T00:45:18.816Z,19.90
2018-06-10T00:47:47.643Z,25.37
2018-06-10T00:50:16.494Z,23.10
2018-06-10T00:52:45.397Z,24.27
2018-06-10T00:55:14.226Z,26.30
2018-06-10T00:57:42.976Z,30.23
2018-06-10T01:00:11.551Z,21.00
2018-06-10T01:02:40.201Z,19.83
2018-06-10T01:05:08.518Z,26.13
2018-06-10T01:07:37.059Z,21.33
2018-06-10T01:10:05.599Z,23.70
2018-06-10T01:12:34.302Z,25.97
2018-06-10T01:15:02.854Z,22.77
2018-06-10T01:17:31.396Z,22.97
2018-06-10T01:20:00.090Z,23.70
2018-06-10T01:22:28.679Z,27.53
2018-06-10T01:24:57.290Z,23.17
2018-06-10T01:27:25.946Z,34.63
2018-06-10T01:29:54.650Z,24.40
2018-06-10T01:32:23.306Z,28.70
2018-06-10T01:34:51.859Z,26.70
2018-06-10T01:37:20.518Z,21.63
2018-06-10T01:39:49.185Z,24.30
2018-06-10T01:42:17.882Z,27.00
2018-06-10T01:44:46.505Z,24.33
2018-06-10T01:47:15.174Z,26.73
2018-06-10T01:49:43.742Z,24.67
2018-06-10T01:52:12.407Z,36.13
2018-06-10T01:54:41.051Z,30.80
2018-06-10T01:57:09.637Z,39.90
2018-06-10T01:59:38.271Z,26.03
2018-06-10T02:02:06.974Z,24.00
2018-06-10T02:04:35.642Z,30.27
2018-06-10T02:07:04.303Z,29.67
2018-06-10T02:09:32.834Z,23.93
2018-06-10T02:12:01.472Z,21.67
2018-06-10T02:14:30.026Z,19.53
2018-06-10T02:16:58.631Z,19.47
2018-06-10T02:19:27.709Z,16.57
2018-06-10T02:21:56.375Z,17.60
2018-06-10T02:24:25.074Z,23.17
2018-06-10T02:26:53.699Z,18.17
2018-06-10T02:29:22.423Z,33.90
2018-06-10T02:31:50.714Z,17.90
2018-06-10T02:34:19.257Z,20.23
2018-06-10T02:36:47.956Z,18.30
2018-06-10T02:39:16.262Z,19.97
2018-06-10T02:41:44.857Z,21.87
2018-06-10T02:44:13.531Z,18.93
2018-06-10T02:46:42.196Z,22.83
2018-06-10T02:49:10.886Z,26.83
2018-06-10T02:51:39.554Z,26.17
2018-06-10T02:54:08.156Z,25.50
2018-06-10T02:56:36.845Z,29.67
2018-06-10T02:59:05.446Z,27.63
2018-06-10T03:01:34.094Z,29.03
2018-06-10T03:04:02.767Z,27.30
2018-06-10T03:06:31.304Z,25.03
2018-06-10T03:08:59.932Z,30.40
2018-06-10T03:11:28.685Z,28.40
2018-06-10T03:13:57.233Z,34.10
2018-06-10T03:16:25.956Z,30.20
2018-06-10T03:18:54.652Z,41.50
2018-06-10T03:21:23.278Z,31.07
2018-06-10T03:23:51.912Z,32.60
2018-06-10T03:26:20.511Z,31.30
2018-06-10T03:28:49.050Z,36.83
2018-06-10T03:31:17.688Z,27.90
2018-06-10T03:33:46.228Z,36.57
2018-06-10T03:36:14.963Z,30.17
2018-06-10T03:38:43.628Z,33.13
2018-06-10T03:41:12.188Z,27.17
2018-06-10T03:43:40.853Z,37.17
2018-06-10T03:46:09.480Z,30.87
2018-06-10T03:48:38.026Z,33.10
2018-06-10T03:51:06.694Z,33.57
2018-06-10T03:53:35.330Z,30.27
2018-06-10T03:56:03.871Z,36.70
2018-06-10T03:58:32.560Z,29.70
2018-06-10T04:01:01.191Z,27.43
2018-06-10T04:03:29.858Z,27.97
2018-06-10T04:05:58.537Z,62.50
2018-06-10T04:08:27.205Z,37.80
2018-06-10T04:10:55.836Z,77.17
2018-06-10T04:13:24.520Z,32.07
2018-06-10T04:15:53.200Z,34.63
2018-06-10T04:18:21.777Z,29.57
2018-06-10T04:20:50.372Z,35.40
2018-06-10T04:23:19.039Z,32.80
2018-06-10T04:25:47.353Z,39.00
2018-06-10T04:28:16.032Z,33.40
2018-06-10T04:30:44.688Z,43.23
2018-06-10T04:33:13.371Z,44.93
2018-06-10T04:35:42.072Z,37.70
2018-06-10T04:38:10.645Z,41.87
2018-06-10T04:40:39.300Z,36.43
2018-06-10T04:43:07.835Z,35.77
2018-06-10T04:45:36.555Z,32.97
2018-06-10T04:48:05.235Z,32.20
2018-06-10T04:50:33.909Z,33.27
2018-06-10T04:53:02.552Z,33.53
2018-06-10T04:55:31.222Z,36.20
2018-06-10T04:57:59.780Z,39.20
2018-06-10T05:00:28.322Z,34.93
2018-06-10T05:02:56.875Z,36.50
2018-06-10T05:05:25.550Z,37.50
2018-06-10T05:07:54.196Z,41.13
2018-06-10T05:10:22.819Z,36.33
2018-06-10T05:12:51.517Z,50.90
2018-06-10T05:15:22.343Z,45.17
2018-06-10T05:17:50.934Z,39.57
2018-06-10T05:20:19.628Z,33.60
2018-06-10T05:22:48.311Z,42.77
2018-06-10T05:25:16.980Z,45.57
2018-06-10T05:27:45.496Z,38.23
2018-06-10T05:30:14.170Z,37.77
2018-06-10T05:32:42.819Z,39.60
2018-06-10T05:35:11.456Z,40.93
2018-06-10T05:37:40.143Z,47.23
2018-06-10T05:40:08.792Z,42.07
2018-06-10T05:42:37.367Z,46.50
2018-06-10T05:45:07.077Z,35.83
2018-06-10T05:47:35.824Z,39.70
2018-06-10T05:50:04.426Z,54.97
2018-06-10T05:52:32.991Z,49.17
2018-06-10T05:55:01.652Z,65.43
2018-06-10T05:57:30.504Z,54.40
2018-06-10T06:00:00.252Z,38.77
2018-06-10T06:02:28.810Z,40.30
2018-06-10T06:04:57.486Z,38.83
2018-06-10T06:07:26.198Z,35.93
2018-06-10T06:09:54.841Z,83.63
2018-06-10T06:12:23.546Z,37.60
2018-06-10T06:14:52.185Z,43.23
2018-06-10T06:17:21.007Z,35.90
2018-06-10T06:19:49.579Z,43.73
2018-06-10T06:22:18.252Z,34.63
2018-06-10T06:24:46.954Z,31.53
2018-06-10T06:27:15.678Z,37.77
2018-06-10T06:29:44.219Z,36.13
2018-06-10T06:32:12.885Z,50.37
2018-06-10T06:34:41.453Z,30.93
2018-06-10T06:37:10.210Z,88.53
2018-06-10T06:39:38.870Z,31.77
2018-06-10T06:42:07.522Z,36.67
2018-06-10T06:44:36.222Z,42.37
2018-06-10T06:47:04.942Z,43.03
2018-06-10T06:49:33.608Z,33.37
2018-06-10T06:52:02.269Z,31.60
2018-06-10T06:54:31.913Z,31.77
2018-06-10T06:57:00.571Z,30.93
2018-06-10T06:59:29.223Z,28.83
2018-06-10T07:01:57.524Z,42.70
2018-06-10T07:04:26.239Z,44.70
2018-06-10T07:06:54.946Z,28.57
2018-06-10T07:09:23.594Z,37.27
2018-06-10T07:11:52.222Z,23.07
2018-06-10T07:14:20.835Z,29.50
2018-06-10T07:16:49.336Z,30.33
2018-06-10T07:19:18.042Z,23.50
2018-06-10T07:21:46.669Z,23.23
2018-06-10T07:24:15.296Z,28.67
2018-06-10T07:26:43.912Z,23.60
2018-06-10T07:29:12.620Z,20.00
2018-06-10T07:31:41.287Z,23.00
2018-06-10T07:34:09.797Z,21.87
2018-06-10T07:36:38.449Z,20.60
2018-06-10T07:39:08.179Z,26.50
2018-06-10T07:41:36.594Z,18.53
2018-06-10T07:44:05.178Z,18.70
2018-06-10T07:46:33.722Z,20.93
2018-06-10T07:49:02.421Z,20.37
2018-06-10T07:51:31.124Z,14.80
2018-06-10T07:54:00.595Z,19.27
2018-06-10T07:56:29.311Z,18.63
2018-06-10T07:58:57.990Z,17.47
2018-06-10T08:01:26.665Z,16.80
2018-06-10T08:03:55.410Z,14.67
2018-06-10T08:06:24.042Z,23.07
2018-06-10T08:08:52.629Z,19.10
2018-06-10T08:11:21.290Z,16.10
2018-06-10T08:13:49.879Z,18.33
2018-06-10T08:16:19.434Z,18.23
2018-06-10T08:18:48.122Z,16.57
2018-06-10T08:21:16.808Z,18.40
2018-06-10T08:23:45.441Z,13.20
2018-06-10T08:26:14.079Z,15.50
2018-06-10T08:28:42.803Z,14.83
2018-06-10T08:31:11.626Z,14.60
2018-06-10T08:33:40.463Z,19.03
2018-06-10T08:36:08.735Z,21.77
2018-06-10T08:38:37.390Z,17.17
2018-06-10T08:41:06.123Z,14.27
2018-06-10T08:43:34.818Z,15.60
2018-06-10T08:46:03.424Z,17.60
2018-06-10T08:48:32.038Z,17.30
2018-06-10T08:51:00.609Z,14.73
2018-06-10T08:53:29.186Z,16.50
2018-06-10T08:55:57.730Z,17.77
2018-06-10T08:58:26.423Z,19.77
2018-06-10T09:00:55.179Z,19.80
2018-06-10T09:03:23.590Z,19.43
2018-06-10T09:05:52.243Z,17.00
2018-06-10T09:08:20.596Z,17.70
2018-06-10T09:10:49.353Z,17.73
2018-06-10T09:13:18.052Z,16.57
2018-06-10T09:15:46.627Z,16.90
2018-06-10T09:18:15.382Z,16.23
2018-06-10T09:20:44.108Z,13.17
2018-06-10T09:23:12.842Z,16.50
2018-06-10T09:25:41.627Z,15.57
2018-06-10T09:28:10.438Z,18.63
2018-06-10T09:30:39.253Z,17.57
2018-06-10T09:33:09.254Z,17.63
2018-06-10T09:35:37.954Z,18.27
2018-06-10T09:38:06.616Z,18.53
2018-06-10T09:40:35.362Z,19.20
2018-06-10T09:43:04.133Z,14.77
2018-06-10T09:45:32.410Z,15.23
2018-06-10T09:48:00.688Z,15.27
2018-06-10T09:50:29.070Z,14.80
2018-06-10T09:52:57.379Z,18.47
2018-06-10T09:55:27.144Z,16.23
2018-06-10T09:57:55.876Z,14.10
2018-06-10T10:00:24.830Z,17.50
2018-06-10T10:02:53.211Z,15.00
2018-06-10T10:05:21.997Z,26.27
2018-06-10T10:07:50.741Z,24.70
2018-06-10T10:10:19.455Z,17.43
2018-06-10T10:12:48.964Z,19.27
2018-06-10T10:15:17.617Z,24.60
2018-06-10T10:17:46.277Z,20.60
2018-06-10T10:20:14.850Z,18.87
2018-06-10T10:22:44.438Z,23.23
2018-06-10T10:25:13.001Z,19.10
2018-06-10T10:27:41.735Z,30.97
2018-06-10T10:30:10.447Z,27.10
2018-06-10T10:32:39.157Z,22.87
2018-06-10T10:35:07.442Z,23.80
2018-06-10T10:37:35.788Z,22.97
2018-06-10T10:40:04.683Z,17.70
2018-06-10T10:42:33.439Z,18.50
2018-06-10T10:45:02.104Z,18.67
2018-06-10T10:47:30.848Z,21.63
2018-06-10T10:49:59.587Z,19.93
2018-06-10T10:52:28.290Z,22.87
2018-06-10T10:54:57.102Z,20.10
2018-06-10T10:57:25.722Z,24.37
2018-06-10T10:59:54.433Z,22.13
2018-06-10T11:02:23.198Z,27.43
2018-06-10T11:04:51.856Z,50.73
2018-06-10T11:07:20.389Z,25.40
2018-06-10T11:09:49.032Z,29.50
2018-06-10T11:12:17.705Z,28.67
2018-06-10T11:14:46.108Z,35.40
2018-06-10T11:17:14.612Z,49.80
2018-06-10T11:19:43.341Z,51.13
2018-06-10T11:22:11.677Z,44.43
2018-06-10T11:24:40.315Z,29.00
2018-06-10T11:27:09.965Z,26.90
2018-06-10T11:29:38.130Z,24.73
2018-06-10T11:32:06.805Z,26.40
2018-06-10T11:34:35.412Z,46.63
2018-06-10T11:37:04.058Z,31.27
2018-06-10T11:39:32.745Z,31.40
2018-06-10T11:42:01.368Z,28.00
2018-06-10T11:44:30.067Z,30.60
2018-06-10T11:46:58.786Z,22.60
2018-06-10T11:49:27.497Z,35.10
2018-06-10T11:51:56.175Z,25.00
2018-06-10T11:54:24.877Z,29.63
2018-06-10T11:56:53.531Z,29.63
2018-06-10T11:59:22.365Z,24.43
2018-06-10T12:01:51.030Z,81.70
2018-06-10T12:04:19.758Z,24.50
2018-06-10T12:06:48.033Z,26.33
2018-06-10T12:09:16.431Z,28.47
2018-06-10T12:11:45.221Z,34.33
2018-06-10T12:14:13.828Z,23.57
2018-06-10T12:16:42.686Z,27.60
2018-06-10T12:19:11.328Z,27.40
2018-06-10T12:21:40.114Z,18.33
2018-06-10T12:24:08.872Z,26.90
2018-06-10T12:26:37.589Z,18.20
2018-06-10T12:29:06.115Z,27.37
2018-06-10T12:31:34.735Z,31.07
2018-06-10T12:34:03.261Z,16.30
2018-06-10T12:36:31.559Z,18.77
2018-06-10T12:39:00.112Z,14.87
2018-06-10T12:41:28.521Z,17.47
2018-06-10T12:43:57.095Z,17.97
2018-06-10T12:46:25.892Z,21.10
2018-06-10T12:48:55.616Z,16.33
2018-06-10T12:51:24.376Z,16.40
2018-06-10T12:53:53.136Z,17.47
2018-06-10T12:56:21.841Z,14.83
2018-06-10T12:58:50.387Z,16.23
2018-06-10T13:01:18.968Z,18.23
2018-06-10T13:03:48.616Z,15.60
2018-06-10T13:06:17.328Z,14.13
2018-06-10T13:08:45.889Z,13.37
2018-06-10T13:11:14.501Z,14.17
2018-06-10T13:13:43.097Z,14.90
2018-06-10T13:16:11.830Z,13.83
2018-06-10T13:18:41.033Z,16.13
2018-06-10T13:21:09.758Z,15.50
2018-06-10T13:23:38.374Z,16.77
2018-06-10T13:26:07.113Z,19.47
2018-06-10T13:28:35.836Z,17.23
2018-06-10T13:31:04.514Z,14.00
2018-06-10T13:33:33.196Z,16.27
2018-06-10T13:36:01.886Z,14.43
2018-06-10T13:38:30.637Z,13.50
2018-06-10T13:40:59.295Z,14.27
2018-06-10T13:43:28.005Z,14.30
2018-06-10T13:45:56.846Z,15.27
2018-06-10T13:48:25.556Z,13.07
2018-06-10T13:50:54.259Z,14.40
2018-06-10T13:53:22.818Z,12.67
2018-06-10T13:55:51.593Z,12.30
2018-06-10T13:58:20.286Z,12.47
2018-06-10T14:00:48.608Z,11.87
2018-06-10T14:03:17.267Z,11.93
2018-06-10T14:05:45.878Z,10.47
2018-06-10T14:08:14.535Z,11.90
2018-06-10T14:10:43.265Z,10.90
2018-06-10T14:13:11.846Z,11.00
2018-06-10T14:15:40.537Z,11.70
2018-06-10T14:18:09.129Z,11.80
2018-06-10T14:20:37.840Z,11.10
2018-06-10T14:23:06.585Z,9.20
2018-06-10T14:25:35.285Z,8.90
2018-06-10T14:28:04.005Z,10.93
2018-06-10T14:30:33.712Z,10.00
2018-06-10T14:33:02.404Z,12.47
2018-06-10T14:35:31.118Z,13.13
2018-06-10T14:37:59.981Z,10.87
2018-06-10T14:40:28.620Z,26.57
2018-06-10T14:42:57.269Z,11.43
2018-06-10T14:45:25.889Z,10.43
2018-06-10T14:47:54.692Z,10.17
2018-06-10T14:50:23.098Z,8.57
2018-06-10T14:52:51.705Z,12.10
2018-06-10T14:55:20.389Z,9.97
2018-06-10T14:57:49.023Z,8.87
2018-06-10T15:00:17.727Z,10.07
2018-06-10T15:02:46.334Z,17.10
2018-06-10T15:05:15.006Z,12.70
2018-06-10T15:07:43.536Z,14.60
2018-06-10T15:10:12.251Z,7.50
2018-06-10T15:12:40.950Z,8.30
2018-06-10T15:15:09.642Z,29.97
2018-06-10T15:17:38.337Z,8.00
2018-06-10T15:20:07.027Z,8.20
2018-06-10T15:22:35.648Z,9.50
2018-06-10T15:25:04.314Z,24.33
2018-06-10T15:27:33.065Z,7.83
2018-06-10T15:30:01.749Z,10.63
2018-06-10T15:32:30.606Z,7.57
2018-06-10T15:34:59.428Z,10.60
2018-06-10T15:37:28.053Z,10.10
2018-06-10T15:39:56.803Z,9.87
2018-06-10T15:42:25.586Z,9.20
2018-06-10T15:44:54.754Z,8.40
2018-06-10T15:47:23.535Z,23.33
2018-06-10T15:49:53.182Z,11.00
2018-06-10T15:52:21.761Z,8.43
2018-06-10T15:54:50.429Z,7.70
2018-06-10T15:57:19.201Z,6.57
2018-06-10T15:59:47.944Z,6.80
2018-06-10T16:02:16.665Z,8.20
2018-06-10T16:04:45.370Z,13.23
2018-06-10T16:07:14.096Z,17.43
2018-06-10T16:09:42.815Z,7.90
2018-06-10T16:12:11.523Z,6.50
2018-06-10T16:14:40.147Z,7.33
2018-06-10T16:17:08.867Z,8.70
2018-06-10T16:19:37.537Z,6.27
2018-06-10T16:22:06.337Z,7.27
2018-06-10T16:24:35.062Z,7.33
2018-06-10T16:27:03.864Z,5.87
2018-06-10T16:29:33.129Z,9.10
2018-06-10T16:32:01.846Z,6.23
2018-06-10T16:34:30.579Z,6.20
2018-06-10T16:36:59.382Z,6.07
2018-06-10T16:39:28.092Z,5.77
2018-06-10T16:41:56.884Z,6.07
2018-06-10T16:44:25.587Z,6.90
2018-06-10T16:46:54.230Z,6.20
2018-06-10T16:49:22.934Z,7.13
2018-06-10T16:51:51.675Z,7.00
2018-06-10T16:54:20.336Z,7.77
2018-06-10T16:56:49.052Z,5.97
2018-06-10T16:59:17.793Z,7.13
2018-06-10T17:01:46.467Z,7.10
2018-06-10T17:04:15.181Z,7.80
2018-06-10T17:06:43.866Z,7.13
2018-06-10T17:09:12.265Z,6.47
2018-06-10T17:11:40.770Z,7.27
2018-06-10T17:14:09.310Z,7.53
2018-06-10T17:16:37.966Z,7.37
2018-06-10T17:19:06.545Z,20.53
2018-06-10T17:21:35.150Z,7.80
2018-06-10T17:24:03.805Z,7.80
2018-06-10T17:26:32.380Z,19.77
2018-06-10T17:29:00.918Z,8.20
2018-06-10T17:31:29.633Z,7.83
2018-06-10T17:33:58.275Z,10.50
2018-06-10T17:36:26.947Z,9.10
2018-06-10T17:38:55.566Z,10.40
2018-06-10T17:41:24.221Z,9.20
2018-06-10T17:43:52.579Z,9.90
2018-06-10T17:46:21.283Z,10.50
2018-06-10T17:48:49.577Z,8.10
2018-06-10T17:51:18.301Z,14.07
2018-06-10T17:53:47.133Z,13.03
2018-06-10T17:56:15.818Z,8.43
2018-06-10T17:58:44.443Z,9.77
2018-06-10T18:01:13.105Z,9.93
2018-06-10T18:03:41.789Z,8.47
2018-06-10T18:06:10.511Z,23.90
2018-06-10T18:08:39.198Z,9.77
2018-06-10T18:11:07.953Z,21.03
2018-06-10T18:13:36.687Z,10.90
2018-06-10T18:16:05.445Z,8.93
2018-06-10T18:18:34.213Z,15.30
2018-06-10T18:21:02.923Z,18.83
2018-06-10T18:23:31.552Z,10.10
2018-06-10T18:26:00.130Z,11.70
2018-06-10T18:28:29.338Z,14.53
2018-06-10T18:30:57.926Z,12.57
2018-06-10T18:33:26.605Z,18.70
2018-06-10T18:35:54.833Z,19.70
2018-06-10T18:38:23.561Z,17.93
2018-06-10T18:40:52.413Z,14.83
2018-06-10T18:43:21.058Z,11.30
2018-06-10T18:45:49.778Z,13.50
2018-06-10T18:48:18.542Z,14.73
2018-06-10T18:50:47.169Z,15.83
2018-06-10T18:53:16.030Z,12.80
2018-06-10T18:55:44.711Z,11.57
2018-06-10T18:58:13.347Z,22.40
2018-06-10T19:00:42.093Z,13.83
2018-06-10T19:03:10.781Z,13.03
2018-06-10T19:05:39.409Z,28.00
2018-06-10T19:08:08.079Z,13.10
2018-06-10T19:10:36.381Z,17.70
2018-06-10T19:13:05.035Z,17.80
2018-06-10T19:15:33.719Z,27.50
2018-06-10T19:18:02.135Z,15.30
2018-06-10T19:20:30.909Z,25.50
2018-06-10T19:22:59.511Z,16.53
2018-06-10T19:25:28.247Z,14.50
2018-06-10T19:27:56.835Z,14.73
2018-06-10T19:30:25.436Z,14.33
2018-06-10T19:32:54.095Z,20.00
2018-06-10T19:35:22.755Z,18.73
2018-06-10T19:37:51.386Z,22.07
2018-06-10T19:40:20.166Z,17.57
2018-06-10T19:42:48.845Z,17.50
2018-06-10T19:45:17.204Z,13.67
2018-06-10T19:47:45.910Z,15.17
2018-06-10T19:50:14.648Z,23.07
2018-06-10T19:52:43.337Z,21.47
2018-06-10T19:55:11.867Z,13.10
2018-06-10T19:57:41.591Z,16.13
2018-06-10T20:00:10.334Z,16.10
2018-06-10T20:02:39.077Z,16.63
2018-06-10T20:05:07.732Z,24.17
2018-06-10T20:07:36.378Z,16.27
2018-06-10T20:10:05.043Z,17.63
2018-06-10T20:12:33.698Z,18.00
2018-06-10T20:15:02.380Z,14.23
2018-06-10T20:17:31.083Z,17.70
2018-06-10T20:19:59.796Z,21.07
2018-06-10T20:22:28.529Z,20.37
2018-06-10T20:24:57.244Z,19.40
2018-06-10T20:27:25.940Z,19.57
2018-06-10T20:29:55.632Z,16.90
2018-06-10T20:32:23.827Z,20.77
2018-06-10T20:34:52.400Z,26.13
2018-06-10T20:37:21.003Z,17.70
2018-06-10T20:39:49.670Z,22.63
2018-06-10T20:42:18.415Z,17.03
2018-06-10T20:44:47.045Z,17.97
2018-06-10T20:47:15.576Z,17.53
2018-06-10T20:49:44.231Z,17.00
2018-06-10T20:52:12.967Z,15.73
2018-06-10T20:54:41.600Z,17.17
2018-06-10T20:57:10.207Z,20.53
2018-06-10T20:59:38.758Z,18.50
2018-06-10T21:02:07.399Z,20.93
2018-06-10T21:04:35.938Z,18.00
2018-06-10T21:07:04.576Z,24.83
2018-06-10T21:09:33.226Z,23.40
2018-06-10T21:12:01.898Z,24.33
2018-06-10T21:14:30.563Z,27.47
2018-06-10T21:16:59.200Z,26.20
2018-06-10T21:19:27.927Z,25.30
2018-06-10T21:21:56.608Z,21.80
2018-06-10T21:24:25.341Z,23.90
2018-06-10T21:26:54.036Z,27.83
2018-06-10T21:29:22.678Z,23.53
2018-06-10T21:31:51.438Z,22.47
2018-06-10T21:34:21.141Z,22.47
2018-06-10T21:36:49.675Z,16.27
2018-06-10T21:39:18.424Z,22.77
2018-06-10T21:41:47.075Z,25.37
2018-06-10T21:44:15.607Z,19.70
2018-06-10T21:46:44.314Z,27.20
2018-06-10T21:49:13.029Z,23.37
2018-06-10T21:51:41.706Z,23.30
2018-06-10T21:54:11.328Z,19.10
2018-06-10T21:56:40.001Z,20.90
2018-06-10T21:59:08.657Z,28.87
2018-06-10T22:01:37.386Z,26.17
2018-06-10T22:04:05.957Z,26.17
2018-06-10T22:06:34.648Z,24.53
2018-06-10T22:09:04.133Z,23.30
2018-06-10T22:11:32.902Z,28.57
2018-06-10T22:14:01.504Z,24.50
2018-06-10T22:16:30.199Z,24.90
2018-06-10T22:18:58.838Z,22.27
2018-06-10T22:21:27.505Z,26.07
2018-06-10T22:23:56.710Z,45.87
2018-06-10T22:26:25.378Z,24.30
2018-06-10T22:28:54.028Z,25.47
2018-06-10T22:31:22.862Z,21.50
2018-06-10T22:33:51.541Z,19.33
2018-06-10T22:36:20.118Z,22.23
2018-06-10T22:38:48.759Z,23.37
2018-06-10T22:41:17.400Z,22.80
2018-06-10T22:43:46.139Z,21.27
2018-06-10T22:46:14.712Z,23.57
2018-06-10T22:48:43.416Z,25.93
2018-06-10T22:51:12.196Z,23.50
2018-06-10T22:54:45.133Z,24.03
2018-06-10T22:57:13.883Z,25.20
2018-06-10T22:59:42.571Z,18.33
2018-06-10T23:02:11.450Z,21.53
2018-06-10T23:04:40.167Z,19.73
2018-06-10T23:07:08.890Z,18.83
2018-06-10T23:09:37.562Z,33.87
2018-06-10T23:12:06.216Z,22.50
2018-06-10T23:14:34.897Z,20.57
2018-06-10T23:17:03.704Z,21.37
2018-06-10T23:19:32.388Z,21.60
2018-06-10T23:22:01.046Z,21.07
2018-06-10T23:24:29.784Z,23.90
2018-06-10T23:26:58.428Z,23.53
2018-06-10T23:29:26.998Z,17.73
2018-06-10T23:31:55.722Z,19.70
2018-06-10T23:34:24.298Z,17.77
2018-06-10T23:36:52.971Z,29.87
2018-06-10T23:39:21.624Z,21.90
2018-06-10T23:41:50.145Z,19.47
2018-06-10T23:44:18.674Z,18.80
2018-06-10T23:46:47.211Z,49.47
2018-06-10T23:49:16.422Z,25.53
2018-06-10T23:51:45.247Z,27.40
2018-06-10T23:54:13.967Z,32.17
2018-06-10T23:56:42.568Z,20.17
2018-06-10T23:59:11.239Z,18.23
